createdAt,value
2023-02-11T00:00:35.696Z,51.22
2023-02-11T00:03:38.960Z,46.92
2023-02-11T00:06:41.473Z,48.93
2023-02-11T00:09:44.040Z,42.95
2023-02-11T00:12:46.408Z,43.50
2023-02-11T00:15:49.839Z,46.78
2023-02-11T00:18:54.111Z,50.15
2023-02-11T00:21:56.958Z,45.30
2023-02-11T00:24:59.750Z,49.45
2023-02-11T00:28:02.487Z,50.00
2023-02-11T00:31:05.046Z,46.30
2023-02-11T00:34:07.979Z,49.42
2023-02-11T00:37:12.098Z,42.53
2023-02-11T00:40:17.345Z,43.90
2023-02-11T00:43:19.644Z,46.45
2023-02-11T00:46:22.834Z,52.22
2023-02-11T00:49:25.465Z,49.28
2023-02-11T00:52:28.062Z,47.20
2023-02-11T00:55:30.956Z,42.35
2023-02-11T00:58:33.830Z,49.03
2023-02-11T01:01:36.309Z,38.85
2023-02-11T01:04:39.011Z,35.90
2023-02-11T01:07:42.770Z,35.72
2023-02-11T01:10:45.423Z,35.22
2023-02-11T01:13:49.383Z,37.58
2023-02-11T01:16:52.021Z,34.72
2023-02-11T01:19:56.709Z,35.20
2023-02-11T01:22:59.329Z,36.80
2023-02-11T01:26:01.971Z,41.00
2023-02-11T01:29:04.934Z,35.92
2023-02-11T01:32:07.291Z,32.63
2023-02-11T01:35:10.167Z,34.63
2023-02-11T01:38:24.002Z,39.67
2023-02-11T01:41:27.483Z,38.53
2023-02-11T01:44:35.956Z,41.22
2023-02-11T01:47:38.585Z,36.47
2023-02-11T01:50:42.768Z,33.40
2023-02-11T01:54:06.180Z,34.03
2023-02-11T01:57:25.331Z,43.08
2023-02-11T02:00:37.211Z,45.90
2023-02-11T02:03:43.649Z,42.10
2023-02-11T02:06:56.000Z,39.45
2023-02-11T02:10:07.125Z,41.28
2023-02-11T02:13:12.077Z,44.65
2023-02-11T02:16:17.973Z,47.47
2023-02-11T02:19:48.413Z,45.90
2023-02-11T02:23:21.708Z,45.88
2023-02-11T02:26:32.943Z,42.25
2023-02-11T02:29:57.478Z,48.80
2023-02-11T02:33:24.787Z,49.05
2023-02-11T02:37:09.678Z,46.90
2023-02-11T02:40:25.633Z,50.40
2023-02-11T02:43:29.458Z,46.55
2023-02-11T02:46:33.893Z,50.95
2023-02-11T02:49:39.003Z,47.30
2023-02-11T02:53:18.783Z,47.83
2023-02-11T02:56:33.618Z,47.25
2023-02-11T02:59:51.570Z,43.95
2023-02-11T03:03:13.163Z,53.45
2023-02-11T03:06:31.238Z,51.45
2023-02-11T03:10:00.438Z,56.95
2023-02-11T03:13:05.337Z,49.30
2023-02-11T03:16:19.932Z,50.83
2023-02-11T03:25:37.752Z,52.13
2023-02-11T03:29:25.449Z,58.85
2023-02-11T03:32:30.394Z,54.03
2023-02-11T03:35:39.742Z,56.97
2023-02-11T03:38:51.880Z,55.30
2023-02-11T03:41:58.602Z,53.80
2023-02-11T03:45:09.601Z,56.50
2023-02-11T03:48:21.453Z,46.30
2023-02-11T03:51:25.458Z,62.38
2023-02-11T03:54:30.953Z,50.35
2023-02-11T03:57:34.728Z,56.03
2023-02-11T04:00:39.868Z,51.33
2023-02-11T04:03:42.494Z,51.08
2023-02-11T04:06:44.866Z,51.35
2023-02-11T04:09:47.483Z,60.42
2023-02-11T04:12:49.850Z,54.33
2023-02-11T04:15:52.833Z,55.58
2023-02-11T04:18:55.304Z,57.30
2023-02-11T04:21:57.976Z,54.55
2023-02-11T04:25:00.277Z,57.53
2023-02-11T04:28:03.034Z,50.65
2023-02-11T04:31:05.632Z,50.67
2023-02-11T04:34:08.234Z,55.00
2023-02-11T04:37:10.584Z,62.45
2023-02-11T04:40:13.520Z,50.80
2023-02-11T04:43:16.255Z,50.75
2023-02-11T04:46:18.943Z,52.95
2023-02-11T04:49:21.514Z,50.60
2023-02-11T04:52:24.131Z,49.33
2023-02-11T04:55:26.438Z,53.30
2023-02-11T04:58:29.056Z,52.72
2023-02-11T05:01:31.858Z,50.38
2023-02-11T05:04:34.552Z,55.80
2023-02-11T05:07:36.995Z,61.70
2023-02-11T05:10:39.629Z,52.00
2023-02-11T05:13:42.020Z,50.78
2023-02-11T05:16:44.744Z,49.95
2023-02-11T05:19:47.086Z,52.25
2023-02-11T05:22:49.769Z,54.72
2023-02-11T05:25:56.725Z,52.78
2023-02-11T05:28:59.543Z,57.88
2023-02-11T05:32:01.868Z,53.55
2023-02-11T05:35:04.764Z,55.35
2023-02-11T05:38:07.094Z,83.07
2023-02-11T05:41:11.217Z,67.28
2023-02-11T05:44:13.630Z,56.83
2023-02-11T05:47:16.277Z,62.10
2023-02-11T05:50:19.044Z,63.00
2023-02-11T05:53:22.182Z,58.70
2023-02-11T05:56:24.523Z,58.25
2023-02-11T05:59:27.126Z,61.88
2023-02-11T06:02:29.476Z,60.15
2023-02-11T06:05:32.430Z,61.03
2023-02-11T06:08:35.729Z,58.67
2023-02-11T06:11:39.600Z,56.80
2023-02-11T06:14:42.310Z,71.43
2023-02-11T06:17:44.903Z,66.23
2023-02-11T06:20:47.198Z,60.65
2023-02-11T06:23:49.785Z,65.32
2023-02-11T06:26:52.279Z,58.42
2023-02-11T06:29:54.876Z,62.92
2023-02-11T06:32:57.260Z,66.45
2023-02-11T06:36:00.098Z,60.10
2023-02-11T06:39:02.844Z,65.57
2023-02-11T06:42:08.041Z,61.83
2023-02-11T06:45:11.133Z,62.62
2023-02-11T06:48:13.853Z,64.95
2023-02-11T06:51:16.830Z,59.40
2023-02-11T06:54:19.482Z,58.35
2023-02-11T06:57:21.850Z,59.30
2023-02-11T07:00:25.548Z,54.88
2023-02-11T07:03:28.026Z,63.55
2023-02-11T07:06:30.674Z,59.70
2023-02-11T07:09:33.043Z,61.55
2023-02-11T07:12:35.690Z,53.95
2023-02-11T07:15:38.282Z,55.58
2023-02-11T07:18:43.634Z,61.83
2023-02-11T07:21:45.944Z,57.15
2023-02-11T07:24:48.553Z,60.45
2023-02-11T07:27:51.111Z,53.40
2023-02-11T07:30:53.894Z,73.05
2023-02-11T07:33:59.975Z,59.17
2023-02-11T07:37:03.072Z,59.53
2023-02-11T07:40:05.904Z,54.08
2023-02-11T07:43:09.483Z,60.72
2023-02-11T07:46:20.674Z,52.83
2023-02-11T07:49:23.404Z,54.13
2023-02-11T07:52:25.807Z,58.17
2023-02-11T07:55:29.578Z,54.25
2023-02-11T07:58:32.695Z,52.15
2023-02-11T08:01:35.346Z,50.65
2023-02-11T08:04:56.154Z,58.78
2023-02-11T08:07:58.748Z,49.78
2023-02-11T08:11:13.906Z,50.25
2023-02-11T08:14:16.511Z,49.45
2023-02-11T08:17:18.859Z,49.40
2023-02-11T08:20:21.452Z,49.78
2023-02-11T08:23:24.501Z,54.58
2023-02-11T08:26:29.263Z,49.97
2023-02-11T08:29:31.573Z,46.30
2023-02-11T08:32:35.197Z,44.83
2023-02-11T08:35:39.842Z,45.85
2023-02-11T08:38:43.667Z,45.40
2023-02-11T08:41:48.924Z,48.05
2023-02-11T08:44:51.590Z,41.28
2023-02-11T08:47:53.950Z,41.70
2023-02-11T08:50:57.650Z,50.25
2023-02-11T08:54:00.915Z,44.28
2023-02-11T08:57:04.131Z,39.00
2023-02-11T09:00:07.080Z,37.45
2023-02-11T09:03:09.717Z,34.72
2023-02-11T09:06:12.870Z,43.95
2023-02-11T09:09:16.534Z,37.35
2023-02-11T09:12:18.866Z,36.13
2023-02-11T09:15:21.517Z,40.58
2023-02-11T09:18:23.993Z,42.67
2023-02-11T09:21:27.678Z,35.92
2023-02-11T09:24:30.022Z,39.80
2023-02-11T09:27:33.025Z,41.30
2023-02-11T09:30:37.392Z,37.20
2023-02-11T09:33:47.865Z,33.42
2023-02-11T09:36:50.292Z,37.67
2023-02-11T09:39:52.902Z,40.85
2023-02-11T09:43:05.920Z,41.20
2023-02-11T09:46:12.926Z,34.43
2023-02-11T09:49:21.941Z,40.17
2023-02-11T09:52:41.785Z,35.40
2023-02-11T09:55:48.363Z,34.90
2023-02-11T09:58:51.142Z,38.25
2023-02-11T10:02:40.222Z,37.08
2023-02-11T10:06:04.324Z,36.53
2023-02-11T10:09:27.765Z,36.22
2023-02-11T10:12:41.067Z,40.22
2023-02-11T10:16:08.081Z,38.47
2023-02-11T10:19:26.579Z,42.42
2023-02-11T10:22:37.657Z,39.28
2023-02-11T10:25:56.363Z,34.28
2023-02-11T10:29:05.659Z,37.90
2023-02-11T10:32:25.025Z,36.67
2023-02-11T10:35:27.402Z,41.63
2023-02-11T10:38:30.770Z,39.78
2023-02-11T10:41:37.054Z,40.87
2023-02-11T10:44:50.043Z,37.70
2023-02-11T10:47:52.577Z,34.13
2023-02-11T10:51:26.866Z,38.17
2023-02-11T10:54:29.148Z,40.08
2023-02-11T10:57:52.717Z,38.72
2023-02-11T11:00:57.249Z,39.83
2023-02-11T11:04:00.053Z,44.47
2023-02-11T11:07:14.207Z,37.35
2023-02-11T11:10:46.982Z,37.88
2023-02-11T11:14:00.351Z,36.45
2023-02-11T11:17:02.989Z,33.25
2023-02-11T11:20:28.520Z,39.05
2023-02-11T11:23:31.849Z,33.33
2023-02-11T11:26:43.806Z,37.60
2023-02-11T11:29:49.876Z,39.25
2023-02-11T11:32:52.646Z,35.22
2023-02-11T11:36:03.349Z,42.40
2023-02-11T11:39:20.542Z,36.30
2023-02-11T11:42:34.301Z,35.85
2023-02-11T11:45:36.669Z,42.10
2023-02-11T11:48:44.278Z,35.55
2023-02-11T11:51:58.061Z,34.88
2023-02-11T11:55:53.088Z,30.48
2023-02-11T11:58:56.098Z,30.83
2023-02-11T12:02:08.682Z,32.00
2023-02-11T12:05:46.662Z,34.13
2023-02-11T12:09:00.396Z,30.83
2023-02-11T12:12:21.732Z,27.95
2023-02-11T12:15:40.605Z,30.37
2023-02-11T12:18:53.974Z,28.35
2023-02-11T12:22:23.906Z,30.50
2023-02-11T12:26:25.176Z,33.53
2023-02-11T12:29:45.979Z,27.25
2023-02-11T12:33:07.638Z,27.00
2023-02-11T12:36:25.168Z,26.48
2023-02-11T12:39:47.444Z,27.60
2023-02-11T12:43:17.797Z,27.45
2023-02-11T12:46:21.092Z,23.08
2023-02-11T12:49:34.487Z,27.47
2023-02-11T12:52:49.019Z,30.62
2023-02-11T12:59:00.647Z,24.92
2023-02-11T13:02:16.806Z,24.73
2023-02-11T13:05:57.644Z,24.67
2023-02-11T13:09:04.477Z,24.98
2023-02-11T13:12:26.762Z,21.12
2023-02-11T13:15:30.311Z,21.80
2023-02-11T13:19:13.568Z,22.52
2023-02-11T13:22:44.689Z,23.35
2023-02-11T13:25:58.519Z,21.70
2023-02-11T13:29:27.517Z,19.55
2023-02-11T13:32:55.844Z,22.35
2023-02-11T13:35:58.063Z,22.52
2023-02-11T13:39:04.690Z,21.20
2023-02-11T13:42:15.688Z,21.92
2023-02-11T13:45:33.805Z,19.67
2023-02-11T13:48:39.015Z,24.48
2023-02-11T13:51:43.178Z,24.52
2023-02-11T13:54:51.757Z,22.02
2023-02-11T13:58:29.747Z,22.62
2023-02-11T14:02:12.546Z,25.50
2023-02-11T14:05:36.874Z,24.42
2023-02-11T14:08:58.656Z,24.67
2023-02-11T14:12:23.755Z,23.23
2023-02-11T14:15:27.260Z,21.08
2023-02-11T14:18:45.212Z,23.25
2023-02-11T14:21:47.581Z,22.62
2023-02-11T14:25:01.403Z,28.67
2023-02-11T14:28:32.693Z,23.38
2023-02-11T14:32:06.140Z,23.67
2023-02-11T14:35:45.420Z,23.62
2023-02-11T14:39:26.689Z,31.65
2023-02-11T14:42:30.998Z,21.85
2023-02-11T14:45:37.059Z,24.27
2023-02-11T14:48:45.548Z,25.05
2023-02-11T14:51:48.407Z,24.67
2023-02-11T14:54:51.900Z,29.55
2023-02-11T14:58:19.569Z,20.40
2023-02-11T15:01:35.364Z,24.42
2023-02-11T15:04:39.972Z,24.25
2023-02-11T15:08:02.919Z,25.12
2023-02-11T15:11:12.164Z,27.90
2023-02-11T15:14:29.844Z,27.02
2023-02-11T15:17:32.968Z,28.35
2023-02-11T15:20:35.988Z,21.42
2023-02-11T15:23:40.704Z,24.45
2023-02-11T15:26:43.259Z,27.40
2023-02-11T15:29:49.465Z,22.98
2023-02-11T15:33:00.692Z,24.67
2023-02-11T15:36:03.882Z,29.58
2023-02-11T15:39:32.971Z,29.90
2023-02-11T15:42:50.638Z,25.10
2023-02-11T15:45:59.727Z,25.15
2023-02-11T15:49:02.718Z,23.80
2023-02-11T15:52:08.213Z,26.60
2023-02-11T15:55:15.914Z,23.25
2023-02-11T15:58:19.113Z,26.40
2023-02-11T16:01:37.072Z,23.65
2023-02-11T16:04:39.851Z,23.45
2023-02-11T16:07:49.811Z,27.67
2023-02-11T16:11:03.334Z,27.15
2023-02-11T16:14:23.335Z,28.50
2023-02-11T16:17:28.661Z,28.02
2023-02-11T16:20:31.538Z,33.67
2023-02-11T16:23:42.061Z,25.10
2023-02-11T16:26:48.936Z,25.65
2023-02-11T16:29:52.398Z,26.23
2023-02-11T16:32:55.083Z,29.77
2023-02-11T16:36:02.043Z,31.50
2023-02-11T16:39:04.380Z,34.45
2023-02-11T16:42:07.720Z,29.75
2023-02-11T16:45:10.157Z,33.60
2023-02-11T16:48:18.232Z,31.23
2023-02-11T16:51:20.769Z,28.42
2023-02-11T16:54:24.107Z,28.17
2023-02-11T16:57:29.853Z,24.77
2023-02-11T17:00:33.096Z,28.95
2023-02-11T17:03:40.037Z,32.15
2023-02-11T17:06:42.958Z,28.08
2023-02-11T17:09:45.549Z,26.62
2023-02-11T17:12:49.976Z,26.35
2023-02-11T17:15:52.622Z,28.55
2023-02-11T17:18:55.477Z,27.50
2023-02-11T17:21:57.883Z,28.48
2023-02-11T17:25:01.012Z,27.45
2023-02-11T17:28:08.194Z,29.63
2023-02-11T17:31:11.152Z,26.55
2023-02-11T17:34:14.000Z,26.48
2023-02-11T17:37:16.759Z,30.05
2023-02-11T17:40:19.312Z,28.33
2023-02-11T17:43:28.759Z,27.90
2023-02-11T17:46:34.569Z,29.10
2023-02-11T17:49:37.311Z,26.42
2023-02-11T17:52:39.764Z,27.05
2023-02-11T17:55:42.749Z,29.35
2023-02-11T17:58:48.869Z,32.67
2023-02-11T18:01:52.012Z,27.52
2023-02-11T18:04:57.558Z,31.33
2023-02-11T18:07:59.912Z,27.77
2023-02-11T18:11:02.834Z,25.90
2023-02-11T18:14:07.808Z,31.10
2023-02-11T18:17:10.419Z,28.52
2023-02-11T18:20:12.971Z,30.25
2023-02-11T18:23:15.610Z,27.10
2023-02-11T18:26:20.554Z,31.50
2023-02-11T18:29:23.206Z,30.52
2023-02-11T18:32:25.669Z,27.75
2023-02-11T18:35:28.261Z,34.92
2023-02-11T18:38:30.563Z,27.13
2023-02-11T18:41:33.694Z,28.87
2023-02-11T18:44:36.649Z,27.23
2023-02-11T18:47:39.371Z,25.73
2023-02-11T18:50:43.329Z,28.95
2023-02-11T18:53:45.966Z,30.88
2023-02-11T18:56:48.302Z,26.40
2023-02-11T18:59:51.254Z,27.25
2023-02-11T19:02:53.581Z,27.75
2023-02-11T19:05:56.221Z,26.27
2023-02-11T19:09:01.800Z,26.33
2023-02-11T19:12:07.271Z,28.50
2023-02-11T19:15:09.760Z,25.55
2023-02-11T19:18:13.849Z,33.13
2023-02-11T19:21:16.155Z,27.90
2023-02-11T19:24:19.894Z,35.20
2023-02-11T19:27:22.413Z,30.05
2023-02-11T19:30:25.038Z,25.70
2023-02-11T19:33:27.312Z,27.67
2023-02-11T19:36:30.497Z,24.17
2023-02-11T19:39:32.981Z,26.42
2023-02-11T19:42:35.658Z,27.75
2023-02-11T19:45:38.096Z,27.90
2023-02-11T19:48:41.376Z,28.55
2023-02-11T19:51:43.938Z,27.87
2023-02-11T19:54:46.865Z,25.52
2023-02-11T19:57:49.235Z,24.80
2023-02-11T20:00:51.871Z,25.85
2023-02-11T20:03:57.100Z,30.33
2023-02-11T20:06:59.475Z,30.55
2023-02-11T20:10:02.347Z,28.95
2023-02-11T20:13:04.994Z,31.55
2023-02-11T20:16:11.003Z,28.42
2023-02-11T20:19:17.734Z,26.62
2023-02-11T20:22:20.678Z,25.80
2023-02-11T20:25:23.038Z,24.65
2023-02-11T20:28:25.761Z,23.27
2023-02-11T20:31:30.115Z,29.08
2023-02-11T20:34:32.946Z,26.70
2023-02-11T20:37:35.301Z,25.62
2023-02-11T20:40:38.484Z,24.55
2023-02-11T20:43:41.897Z,23.52
2023-02-11T20:46:48.261Z,29.20
2023-02-11T20:49:54.483Z,27.98
2023-02-11T20:52:57.260Z,23.42
2023-02-11T20:56:06.370Z,24.80
2023-02-11T20:59:09.834Z,24.75
2023-02-11T21:02:13.594Z,23.77
2023-02-11T21:05:16.535Z,22.90
2023-02-11T21:08:19.007Z,21.55
2023-02-11T21:11:21.702Z,22.75
2023-02-11T21:14:26.922Z,23.35
2023-02-11T21:17:29.855Z,25.30
2023-02-11T21:20:32.220Z,25.50
2023-02-11T21:23:35.925Z,22.40
2023-02-11T21:26:39.102Z,26.77
2023-02-11T21:29:53.458Z,30.37
2023-02-11T21:32:58.961Z,25.17
2023-02-11T21:36:04.269Z,22.87
2023-02-11T21:39:06.970Z,23.80
2023-02-11T21:42:09.779Z,24.65
2023-02-11T21:45:13.319Z,24.17
2023-02-11T21:48:17.942Z,28.02
2023-02-11T21:51:23.837Z,26.58
2023-02-11T21:54:31.993Z,22.40
2023-02-11T21:57:34.482Z,22.40
2023-02-11T22:00:37.693Z,23.38
2023-02-11T22:03:40.494Z,24.90
2023-02-11T22:06:43.034Z,23.08
2023-02-11T22:09:45.776Z,25.98
2023-02-11T22:12:48.163Z,24.15
2023-02-11T22:15:58.758Z,22.00
2023-02-11T22:19:02.572Z,22.37
2023-02-11T22:25:08.012Z,21.70
2023-02-11T22:28:10.675Z,20.63
2023-02-11T22:31:15.542Z,23.25
2023-02-11T22:34:18.377Z,21.65
2023-02-11T22:37:20.956Z,21.12
2023-02-11T22:40:23.620Z,22.98
2023-02-11T22:43:27.268Z,24.63
2023-02-11T22:49:35.698Z,22.13
2023-02-11T22:52:38.361Z,19.90
2023-02-11T22:55:40.721Z,21.45
2023-02-11T22:58:43.627Z,20.98
2023-02-11T23:01:46.454Z,24.87
2023-02-11T23:04:50.030Z,19.90
2023-02-11T23:07:52.491Z,23.50
2023-02-11T23:10:55.315Z,22.23
2023-02-11T23:13:58.600Z,23.33
2023-02-11T23:17:01.227Z,19.35
2023-02-11T23:20:03.956Z,28.40
2023-02-11T23:23:06.830Z,24.42
2023-02-11T23:26:12.663Z,22.80
2023-02-11T23:29:15.598Z,22.52
2023-02-11T23:32:19.242Z,19.17
2023-02-11T23:38:27.242Z,21.92
2023-02-11T23:41:29.883Z,22.50
2023-02-11T23:44:32.204Z,20.88
2023-02-11T23:47:35.293Z,22.65
2023-02-11T23:50:39.637Z,22.00
2023-02-11T23:53:42.434Z,22.75
2023-02-11T23:56:44.813Z,24.23
2023-02-11T23:59:49.976Z,20.77
